createdAt,value
2023-04-12T00:02:15.195Z,1.45
2023-04-12T00:04:43.157Z,1.35
2023-04-12T00:07:12.125Z,1.45
2023-04-12T00:09:41.341Z,1.55
2023-04-12T00:12:11.108Z,1.52
2023-04-12T00:14:38.890Z,1.83
2023-04-12T00:17:07.158Z,1.40
2023-04-12T00:19:34.931Z,1.63
2023-04-12T00:22:03.864Z,1.48
2023-04-12T00:24:32.933Z,1.65
2023-04-12T00:27:02.667Z,1.67
2023-04-12T00:29:30.547Z,1.85
2023-04-12T00:31:58.238Z,1.50
2023-04-12T00:34:25.982Z,1.38
2023-04-12T00:36:53.825Z,1.52
2023-04-12T00:39:22.874Z,1.73
2023-04-12T00:41:50.882Z,1.95
2023-04-12T00:44:21.604Z,1.38
2023-04-12T00:46:49.385Z,1.33
2023-04-12T00:49:17.202Z,1.77
2023-04-12T00:51:45.042Z,1.63
2023-04-12T00:54:14.868Z,1.27
2023-04-12T00:56:45.415Z,1.52
2023-04-12T00:59:13.214Z,1.23
2023-04-12T01:01:43.542Z,1.58
2023-04-12T01:04:14.028Z,2.28
2023-04-12T01:06:52.454Z,1.92
2023-04-12T01:09:27.388Z,1.48
2023-04-12T01:12:03.439Z,1.67
2023-04-12T01:14:36.648Z,1.48
2023-04-12T01:17:07.465Z,1.52
2023-04-12T01:19:53.562Z,1.85
2023-04-12T01:22:30.758Z,2.03
2023-04-12T01:25:04.999Z,1.20
2023-04-12T01:27:38.708Z,1.40
2023-04-12T01:30:08.545Z,1.50
2023-04-12T01:32:38.265Z,1.52
2023-04-12T01:35:08.838Z,1.73
2023-04-12T01:37:37.237Z,1.42
2023-04-12T01:40:06.808Z,1.38
2023-04-12T01:42:35.922Z,1.60
2023-04-12T01:45:04.033Z,1.48
2023-04-12T01:47:31.785Z,1.80
2023-04-12T01:50:04.933Z,1.42
2023-04-12T01:52:33.874Z,1.92
2023-04-12T01:55:03.691Z,1.48
2023-04-12T01:57:31.868Z,1.60
2023-04-12T02:00:06.514Z,1.40
2023-04-12T02:02:36.626Z,1.20
2023-04-12T02:05:05.628Z,1.25
2023-04-12T02:07:33.576Z,1.73
2023-04-12T02:10:01.361Z,1.98
2023-04-12T02:12:29.032Z,1.33
2023-04-12T02:14:57.221Z,1.80
2023-04-12T02:17:26.324Z,1.50
2023-04-12T02:19:54.079Z,1.50
2023-04-12T02:22:21.757Z,1.20
2023-04-12T02:24:49.459Z,1.73
2023-04-12T02:27:18.820Z,1.50
2023-04-12T02:29:46.977Z,1.73
2023-04-12T02:32:15.913Z,1.60
2023-04-12T02:34:45.315Z,1.27
2023-04-12T02:37:16.890Z,1.70
2023-04-12T02:39:44.715Z,1.20
2023-04-12T02:42:12.351Z,1.48
2023-04-12T02:44:40.250Z,1.15
2023-04-12T02:47:07.867Z,1.80
2023-04-12T02:49:35.665Z,1.45
2023-04-12T02:52:05.514Z,1.27
2023-04-12T02:54:33.693Z,1.10
2023-04-12T02:57:01.536Z,1.48
2023-04-12T02:59:29.215Z,1.70
2023-04-12T03:01:56.921Z,1.30
2023-04-12T03:04:30.752Z,1.35
2023-04-12T03:06:58.796Z,1.40
2023-04-12T03:09:29.105Z,1.55
2023-04-12T03:11:56.861Z,1.48
2023-04-12T03:14:26.436Z,1.30
2023-04-12T03:16:54.043Z,1.02
2023-04-12T03:19:21.806Z,2.10
2023-04-12T03:21:49.411Z,1.77
2023-04-12T03:24:17.260Z,1.42
2023-04-12T03:26:46.292Z,1.50
2023-04-12T03:29:13.929Z,1.60
2023-04-12T03:31:42.524Z,1.42
2023-04-12T03:34:10.559Z,1.85
2023-04-12T03:36:38.706Z,1.67
2023-04-12T03:39:06.433Z,2.33
2023-04-12T03:41:34.651Z,1.58
2023-04-12T03:44:03.873Z,1.88
2023-04-12T03:46:32.169Z,2.45
2023-04-12T03:48:59.970Z,2.63
2023-04-12T03:51:30.636Z,2.33
2023-04-12T03:53:58.792Z,1.83
2023-04-12T03:56:26.612Z,2.22
2023-04-12T03:58:54.384Z,2.13
2023-04-12T04:01:23.698Z,2.20
2023-04-12T04:03:51.494Z,1.73
2023-04-12T04:06:19.216Z,2.35
2023-04-12T04:08:47.021Z,1.77
2023-04-12T04:11:14.855Z,2.13
2023-04-12T04:13:42.452Z,1.67
2023-04-12T04:16:10.964Z,1.85
2023-04-12T04:18:39.997Z,2.30
2023-04-12T04:21:08.940Z,2.42
2023-04-12T04:23:39.065Z,2.53
2023-04-12T04:26:10.432Z,2.30
2023-04-12T04:28:38.620Z,1.95
2023-04-12T04:31:06.645Z,2.55
2023-04-12T04:33:34.390Z,2.78
2023-04-12T04:36:04.338Z,2.25
2023-04-12T04:38:32.715Z,2.28
2023-04-12T04:41:02.404Z,2.83
2023-04-12T04:43:30.905Z,2.00
2023-04-12T04:45:59.078Z,2.25
2023-04-12T04:48:26.748Z,2.17
2023-04-12T04:50:54.414Z,2.22
2023-04-12T04:53:23.824Z,2.53
2023-04-12T04:55:58.331Z,2.13
2023-04-12T04:58:26.137Z,1.70
2023-04-12T05:00:57.523Z,2.38
2023-04-12T05:03:30.626Z,2.20
2023-04-12T05:05:58.762Z,1.75
2023-04-12T05:08:28.725Z,2.05
2023-04-12T05:10:57.174Z,1.85
2023-04-12T05:13:25.038Z,1.80
2023-04-12T05:15:52.768Z,1.73
2023-04-12T05:18:20.733Z,1.55
2023-04-12T05:20:48.802Z,1.73
2023-04-12T05:23:17.479Z,2.17
2023-04-12T05:25:48.303Z,3.28
2023-04-12T05:28:17.294Z,1.40
2023-04-12T05:30:45.503Z,2.28
2023-04-12T05:33:13.239Z,1.52
2023-04-12T05:35:40.909Z,2.00
2023-04-12T05:38:08.635Z,1.35
2023-04-12T05:40:36.499Z,2.17
2023-04-12T05:43:05.765Z,2.05
2023-04-12T05:45:33.524Z,2.63
2023-04-12T05:48:01.277Z,1.38
2023-04-12T05:50:29.058Z,2.05
2023-04-12T05:52:56.752Z,1.90
2023-04-12T05:55:24.357Z,1.80
2023-04-12T05:57:52.336Z,1.17
2023-04-12T06:00:25.357Z,2.20
2023-04-12T06:02:53.379Z,1.45
2023-04-12T06:05:22.856Z,1.73
2023-04-12T06:07:51.415Z,1.45
2023-04-12T06:10:19.318Z,1.45
2023-04-12T06:12:47.079Z,1.40
2023-04-12T06:15:14.837Z,1.73
2023-04-12T06:17:43.903Z,0.95
2023-04-12T06:20:17.026Z,1.83
2023-04-12T06:22:46.245Z,1.48
2023-04-12T06:25:13.964Z,1.67
2023-04-12T06:27:41.650Z,1.63
2023-04-12T06:30:09.661Z,2.58
2023-04-12T06:32:39.167Z,1.50
2023-04-12T06:35:08.531Z,1.73
2023-04-12T06:37:36.291Z,1.48
2023-04-12T06:40:04.726Z,1.35
2023-04-12T06:42:32.405Z,1.23
2023-04-12T06:45:00.027Z,1.75
2023-04-12T06:47:27.746Z,1.73
2023-04-12T06:49:56.889Z,1.88
2023-04-12T06:52:26.681Z,1.42
2023-04-12T06:54:54.785Z,1.48
2023-04-12T06:57:22.693Z,2.28
2023-04-12T06:59:50.343Z,2.70
2023-04-12T07:02:18.499Z,1.10
2023-04-12T07:04:46.440Z,1.85
2023-04-12T07:07:14.118Z,2.15
2023-04-12T07:09:43.491Z,1.17
2023-04-12T07:12:11.115Z,1.63
2023-04-12T07:14:38.802Z,0.90
2023-04-12T07:17:06.836Z,1.75
2023-04-12T07:19:34.719Z,1.25
2023-04-12T07:22:02.497Z,1.92
2023-04-12T07:24:30.477Z,1.55
2023-04-12T07:26:59.549Z,0.88
2023-04-12T07:29:27.431Z,1.40
2023-04-12T07:31:55.116Z,1.35
2023-04-12T07:34:24.114Z,1.67
2023-04-12T07:36:52.150Z,1.50
2023-04-12T07:39:19.808Z,1.10
2023-04-12T07:41:48.397Z,1.20
2023-04-12T07:44:17.376Z,0.90
2023-04-12T07:46:45.147Z,1.05
2023-04-12T07:49:12.875Z,1.92
2023-04-12T07:51:42.137Z,1.00
2023-04-12T07:54:10.035Z,1.05
2023-04-12T07:56:37.665Z,1.17
2023-04-12T07:59:06.117Z,1.60
2023-04-12T08:01:35.111Z,1.08
2023-04-12T08:04:03.456Z,1.60
2023-04-12T08:06:33.697Z,1.40
2023-04-12T08:09:01.958Z,1.40
2023-04-12T08:11:29.672Z,1.17
2023-04-12T08:13:58.015Z,1.20
2023-04-12T08:16:25.866Z,1.33
2023-04-12T08:18:55.018Z,1.15
2023-04-12T08:21:23.300Z,1.77
2023-04-12T08:23:51.812Z,1.92
2023-04-12T08:26:19.561Z,1.25
2023-04-12T08:28:47.387Z,1.23
2023-04-12T08:31:15.726Z,1.50
2023-04-12T08:33:44.959Z,1.20
2023-04-12T08:36:13.988Z,0.77
2023-04-12T08:38:46.008Z,1.25
2023-04-12T08:41:15.197Z,1.17
2023-04-12T08:43:44.635Z,1.55
2023-04-12T08:46:16.002Z,1.38
2023-04-12T08:48:45.660Z,1.15
2023-04-12T08:51:19.513Z,0.68
2023-04-12T08:53:47.238Z,1.17
2023-04-12T08:56:15.407Z,1.33
2023-04-12T08:58:48.944Z,1.15
2023-04-12T09:01:17.125Z,1.92
2023-04-12T09:03:45.420Z,1.50
2023-04-12T09:06:13.186Z,1.40
2023-04-12T09:08:53.643Z,1.40
2023-04-12T09:11:25.800Z,1.90
2023-04-12T09:13:54.137Z,1.90
2023-04-12T09:16:36.634Z,1.23
2023-04-12T09:19:04.532Z,2.25
2023-04-12T09:21:32.821Z,1.20
2023-04-12T09:24:11.018Z,1.70
2023-04-12T09:26:41.282Z,1.88
2023-04-12T09:29:22.816Z,1.83
2023-04-12T09:31:56.460Z,1.80
2023-04-12T09:34:25.980Z,1.50
2023-04-12T09:36:55.562Z,1.50
2023-04-12T09:39:33.478Z,1.58
2023-04-12T09:42:18.127Z,2.45
2023-04-12T09:44:56.180Z,1.65
2023-04-12T09:47:25.067Z,1.67
2023-04-12T09:49:53.048Z,2.78
2023-04-12T09:52:21.240Z,1.85
2023-04-12T09:54:50.516Z,2.05
2023-04-12T09:57:18.482Z,2.78
2023-04-12T09:59:47.745Z,1.77
2023-04-12T10:02:16.612Z,2.20
2023-04-12T10:04:44.605Z,2.40
2023-04-12T10:07:14.929Z,2.35
2023-04-12T10:09:43.334Z,1.95
2023-04-12T10:12:12.346Z,1.77
2023-04-12T10:14:40.096Z,3.17
2023-04-12T10:17:09.632Z,2.10
2023-04-12T10:19:38.739Z,2.10
2023-04-12T10:22:06.380Z,2.03
2023-04-12T10:24:34.095Z,2.08
2023-04-12T10:27:04.693Z,1.77
2023-04-12T10:29:37.090Z,1.50
2023-04-12T10:32:19.678Z,1.48
2023-04-12T10:34:51.509Z,1.33
2023-04-12T10:37:19.173Z,1.88
2023-04-12T10:39:52.757Z,1.70
2023-04-12T10:42:22.748Z,1.70
2023-04-12T10:44:53.006Z,1.38
2023-04-12T10:47:39.501Z,1.98
2023-04-12T10:50:24.880Z,1.38
2023-04-12T10:53:12.866Z,0.77
2023-04-12T10:55:41.525Z,1.13
2023-04-12T10:58:09.745Z,0.70
2023-04-12T11:00:56.518Z,0.82
2023-04-12T11:03:26.402Z,0.70
2023-04-12T11:06:12.624Z,0.60
2023-04-12T11:08:49.398Z,0.65
2023-04-12T11:11:20.871Z,1.00
2023-04-12T11:13:48.597Z,0.82
2023-04-12T11:16:16.251Z,1.20
2023-04-12T11:18:47.502Z,0.77
2023-04-12T11:21:15.646Z,1.15
2023-04-12T11:24:28.754Z,1.00
2023-04-12T11:26:57.250Z,1.10
2023-04-12T11:29:26.034Z,0.63
2023-04-12T11:31:53.783Z,0.90
2023-04-12T11:34:23.397Z,0.85
2023-04-12T11:36:53.686Z,0.85
2023-04-12T11:39:23.817Z,0.60
2023-04-12T11:41:51.506Z,1.02
2023-04-12T11:44:21.776Z,1.48
2023-04-12T11:46:52.406Z,1.00
2023-04-12T11:49:20.705Z,1.50
2023-04-12T11:51:49.797Z,1.00
2023-04-12T11:54:17.505Z,0.93
2023-04-12T11:56:45.347Z,1.48
2023-04-12T11:59:13.365Z,1.13
2023-04-12T12:01:41.141Z,1.27
2023-04-12T12:04:09.059Z,2.38
2023-04-12T12:06:39.454Z,0.88
2023-04-12T12:09:08.724Z,0.93
2023-04-12T12:11:36.440Z,0.65
2023-04-12T12:14:04.780Z,1.00
2023-04-12T12:16:32.720Z,1.02
2023-04-12T12:19:04.794Z,0.88
2023-04-12T12:21:32.575Z,0.98
2023-04-12T12:24:01.377Z,0.73
2023-04-12T12:26:30.862Z,0.90
2023-04-12T12:29:00.334Z,1.35
2023-04-12T12:31:29.134Z,0.95
2023-04-12T12:33:57.885Z,1.42
2023-04-12T12:36:31.446Z,1.40
2023-04-12T12:39:05.837Z,1.13
2023-04-12T12:41:35.540Z,1.10
2023-04-12T12:44:03.469Z,1.17
2023-04-12T12:46:44.634Z,1.00
2023-04-12T12:49:18.956Z,0.65
2023-04-12T12:51:46.724Z,0.95
2023-04-12T12:54:16.374Z,1.00
2023-04-12T12:56:51.200Z,0.82
2023-04-12T12:59:19.701Z,0.85
2023-04-12T13:01:47.454Z,0.75
2023-04-12T13:04:16.590Z,0.70
2023-04-12T13:06:44.334Z,0.47
2023-04-12T13:09:12.033Z,0.88
2023-04-12T13:11:39.837Z,0.60
2023-04-12T13:14:08.874Z,0.88
2023-04-12T13:16:36.556Z,0.95
2023-04-12T13:19:04.291Z,0.98
2023-04-12T13:21:32.616Z,1.00
2023-04-12T13:24:00.337Z,0.70
2023-04-12T13:26:28.047Z,0.73
2023-04-12T13:28:56.270Z,1.35
2023-04-12T13:31:26.127Z,1.35
2023-04-12T13:33:54.059Z,1.10
2023-04-12T13:36:21.742Z,0.73
2023-04-12T13:38:49.391Z,1.00
2023-04-12T13:41:17.063Z,0.82
2023-04-12T13:43:45.019Z,1.08
2023-04-12T13:46:13.052Z,0.88
2023-04-12T13:48:42.767Z,1.15
2023-04-12T13:51:10.594Z,1.02
2023-04-12T13:53:38.362Z,1.00
2023-04-12T13:56:06.632Z,0.98
2023-04-12T13:58:34.658Z,0.98
2023-04-12T14:01:02.735Z,1.13
2023-04-12T14:03:32.318Z,1.10
2023-04-12T14:06:01.871Z,0.90
2023-04-12T14:08:29.996Z,0.80
2023-04-12T14:10:58.014Z,0.80
2023-04-12T14:13:26.034Z,0.93
2023-04-12T14:15:54.000Z,0.63
2023-04-12T14:18:22.023Z,1.30
2023-04-12T14:20:52.642Z,1.45
2023-04-12T14:25:51.993Z,1.23
2023-04-12T14:28:21.560Z,1.73
2023-04-12T14:30:50.528Z,1.10
2023-04-12T14:33:18.397Z,1.10
2023-04-12T14:35:46.615Z,0.95
2023-04-12T14:38:14.309Z,1.20
2023-04-12T14:40:43.942Z,1.30
2023-04-12T14:43:11.628Z,1.10
2023-04-12T14:45:39.433Z,1.25
2023-04-12T14:48:07.282Z,1.10
2023-04-12T14:50:34.979Z,1.33
2023-04-12T14:53:02.653Z,1.58
2023-04-12T14:55:30.470Z,1.35
2023-04-12T14:57:59.607Z,1.85
2023-04-12T15:00:29.352Z,0.68
2023-04-12T15:02:58.034Z,0.98
2023-04-12T15:05:26.423Z,1.13
2023-04-12T15:07:54.311Z,0.70
2023-04-12T15:10:22.420Z,0.68
2023-04-12T15:12:50.106Z,0.75
2023-04-12T15:15:20.423Z,0.50
2023-04-12T15:17:48.153Z,0.50
2023-04-12T15:20:17.301Z,0.70
2023-04-12T15:22:45.055Z,0.70
2023-04-12T15:25:12.821Z,0.70
2023-04-12T15:27:40.800Z,0.63
2023-04-12T15:30:20.741Z,1.00
2023-04-12T15:32:48.943Z,0.88
2023-04-12T15:35:26.145Z,0.82
2023-04-12T15:37:55.596Z,1.23
2023-04-12T15:40:24.364Z,0.60
2023-04-12T15:42:52.191Z,0.50
2023-04-12T15:45:21.748Z,0.65
2023-04-12T15:47:49.420Z,0.80
2023-04-12T15:50:20.489Z,0.63
2023-04-12T15:52:48.507Z,0.60
2023-04-12T15:55:18.717Z,0.95
2023-04-12T15:57:47.037Z,0.82
2023-04-12T16:00:21.348Z,0.80
2023-04-12T16:02:54.544Z,0.95
2023-04-12T16:05:24.583Z,1.35
2023-04-12T16:07:52.239Z,2.05
2023-04-12T16:10:21.160Z,0.50
2023-04-12T16:12:49.644Z,0.63
2023-04-12T16:15:20.285Z,0.30
2023-04-12T16:17:52.037Z,0.60
2023-04-12T16:20:22.095Z,0.30
2023-04-12T16:22:54.246Z,0.73
2023-04-12T16:25:23.394Z,0.50
2023-04-12T16:27:51.144Z,0.43
2023-04-12T16:30:18.970Z,0.52
2023-04-12T16:32:47.800Z,0.45
2023-04-12T16:35:19.407Z,0.60
2023-04-12T16:37:48.768Z,0.55
2023-04-12T16:40:17.331Z,0.70
2023-04-12T16:42:45.547Z,0.52
2023-04-12T16:45:14.583Z,0.70
2023-04-12T16:47:42.785Z,0.50
2023-04-12T16:50:12.795Z,0.63
2023-04-12T16:52:41.734Z,1.20
2023-04-12T16:55:14.319Z,0.60
2023-04-12T16:57:44.536Z,0.90
2023-04-12T17:00:20.561Z,0.70
2023-04-12T17:02:50.170Z,0.32
2023-04-12T17:05:20.028Z,0.68
2023-04-12T17:07:49.766Z,0.73
2023-04-12T17:10:21.020Z,0.60
2023-04-12T17:12:49.495Z,0.57
2023-04-12T17:15:18.462Z,0.52
2023-04-12T17:17:47.556Z,0.43
2023-04-12T17:20:24.175Z,0.55
2023-04-12T17:22:54.198Z,0.63
2023-04-12T17:25:27.342Z,0.85
2023-04-12T17:27:55.444Z,0.55
2023-04-12T17:30:24.118Z,0.52
2023-04-12T17:32:52.648Z,0.73
2023-04-12T17:35:20.931Z,0.63
2023-04-12T17:37:49.088Z,0.75
2023-04-12T17:40:16.948Z,0.88
2023-04-12T17:42:46.056Z,0.90
2023-04-12T17:45:14.786Z,0.60
2023-04-12T17:47:42.951Z,0.50
2023-04-12T17:50:11.629Z,0.40
2023-04-12T17:52:40.626Z,0.50
2023-04-12T17:55:09.418Z,0.60
2023-04-12T17:57:37.280Z,0.60
2023-04-12T18:00:09.419Z,1.00
2023-04-12T18:02:37.222Z,1.30
2023-04-12T18:05:09.768Z,0.88
2023-04-12T18:07:39.839Z,0.70
2023-04-12T18:10:13.028Z,0.73
2023-04-12T18:12:41.061Z,1.08
2023-04-12T18:15:11.030Z,0.98
2023-04-12T18:17:40.293Z,0.73
2023-04-12T18:20:10.561Z,0.68
2023-04-12T18:22:38.400Z,1.38
2023-04-12T18:25:06.540Z,1.17
2023-04-12T18:27:34.529Z,1.10
2023-04-12T18:30:03.403Z,0.77
2023-04-12T18:32:32.573Z,1.02
2023-04-12T18:35:00.190Z,1.08
2023-04-12T18:37:28.175Z,1.00
2023-04-12T18:39:56.453Z,0.50
2023-04-12T18:42:24.214Z,1.08
2023-04-12T18:44:52.175Z,0.73
2023-04-12T18:47:20.544Z,0.70
2023-04-12T18:49:49.581Z,0.80
2023-04-12T18:52:17.261Z,0.65
2023-04-12T18:54:47.146Z,0.80
2023-04-12T18:57:15.381Z,0.45
2023-04-12T18:59:44.846Z,0.60
2023-04-12T19:02:12.916Z,0.50
2023-04-12T19:04:41.947Z,0.82
2023-04-12T19:07:11.361Z,0.68
2023-04-12T19:09:39.231Z,0.40
2023-04-12T19:12:07.282Z,0.60
2023-04-12T19:14:35.848Z,0.75
2023-04-12T19:17:04.325Z,0.50
2023-04-12T19:19:32.029Z,0.90
2023-04-12T19:22:02.651Z,0.50
2023-04-12T19:24:32.846Z,1.05
2023-04-12T19:27:03.471Z,1.00
2023-04-12T19:29:31.373Z,0.65
2023-04-12T19:32:03.216Z,0.60
2023-04-12T19:34:30.834Z,0.50
2023-04-12T19:36:58.858Z,0.88
2023-04-12T19:39:27.126Z,0.80
2023-04-12T19:41:56.401Z,0.77
2023-04-12T19:44:24.459Z,0.47
2023-04-12T19:46:52.911Z,0.63
2023-04-12T19:49:22.119Z,0.50
2023-04-12T19:51:50.084Z,0.70
2023-04-12T19:54:18.874Z,0.57
2023-04-12T19:56:47.078Z,0.63
2023-04-12T19:59:16.192Z,0.57
2023-04-12T20:01:48.417Z,0.80
2023-04-12T20:04:17.124Z,0.30
2023-04-12T20:06:45.228Z,0.60
2023-04-12T20:09:14.030Z,0.93
2023-04-12T20:11:42.189Z,0.98
2023-04-12T20:14:12.671Z,1.00
2023-04-12T20:16:42.935Z,0.80
2023-04-12T20:19:11.209Z,1.38
2023-04-12T20:21:40.826Z,0.38
2023-04-12T20:24:09.513Z,0.52
2023-04-12T20:26:46.558Z,0.40
2023-04-12T20:29:17.816Z,0.65
2023-04-12T20:31:49.161Z,0.65
2023-04-12T20:34:19.375Z,0.40
2023-04-12T20:36:47.261Z,0.60
2023-04-12T20:39:15.517Z,0.60
2023-04-12T20:41:50.107Z,0.82
2023-04-12T20:44:18.002Z,0.83
2023-04-12T20:46:45.929Z,0.57
2023-04-12T20:49:15.345Z,0.30
2023-04-12T20:51:46.880Z,0.60
2023-04-12T20:54:15.101Z,0.75
2023-04-12T20:56:42.913Z,0.68
2023-04-12T20:59:10.730Z,0.30
2023-04-12T21:01:38.597Z,0.55
2023-04-12T21:04:08.042Z,0.40
2023-04-12T21:06:39.642Z,0.60
2023-04-12T21:09:07.374Z,0.63
2023-04-12T21:11:36.516Z,1.05
2023-04-12T21:14:08.070Z,0.70
2023-04-12T21:16:38.850Z,1.02
2023-04-12T21:19:08.307Z,0.60
2023-04-12T21:21:38.860Z,0.32
2023-04-12T21:24:07.187Z,0.50
2023-04-12T21:26:34.937Z,0.88
2023-04-12T21:29:02.795Z,0.47
2023-04-12T21:31:30.691Z,0.57
2023-04-12T21:33:59.273Z,0.52
2023-04-12T21:36:28.701Z,0.45
2023-04-12T21:38:59.798Z,0.40
2023-04-12T21:41:29.662Z,0.63
2023-04-12T21:43:57.287Z,0.50
2023-04-12T21:46:27.602Z,0.60
2023-04-12T21:48:55.522Z,0.65
2023-04-12T21:51:26.744Z,0.25
2023-04-12T21:53:54.596Z,0.38
2023-04-12T21:56:26.205Z,0.40
2023-04-12T21:58:57.307Z,0.95
2023-04-12T22:01:26.652Z,0.70
2023-04-12T22:03:54.539Z,0.50
2023-04-12T22:06:22.523Z,0.50
2023-04-12T22:08:50.258Z,0.20
2023-04-12T22:11:18.387Z,0.68
2023-04-12T22:13:47.576Z,0.50
2023-04-12T22:16:15.930Z,0.57
2023-04-12T22:18:45.811Z,0.55
2023-04-12T22:21:14.241Z,0.80
2023-04-12T22:23:42.350Z,0.80
2023-04-12T22:26:13.157Z,0.35
2023-04-12T22:28:42.626Z,0.40
2023-04-12T22:31:14.618Z,1.20
2023-04-12T22:33:42.457Z,0.38
2023-04-12T22:36:10.705Z,0.43
2023-04-12T22:38:38.805Z,0.40
2023-04-12T22:41:06.622Z,0.70
2023-04-12T22:43:38.086Z,0.70
2023-04-12T22:46:06.510Z,0.50
2023-04-12T22:48:40.371Z,0.28
2023-04-12T22:51:08.821Z,0.60
2023-04-12T22:53:36.504Z,0.50
2023-04-12T22:56:04.280Z,0.80
2023-04-12T22:58:32.908Z,1.13
2023-04-12T23:01:00.583Z,1.00
2023-04-12T23:03:28.722Z,1.15
2023-04-12T23:05:58.082Z,0.88
2023-04-12T23:08:26.226Z,0.70
2023-04-12T23:11:02.286Z,1.45
2023-04-12T23:13:30.327Z,1.10
2023-04-12T23:15:58.370Z,1.23
2023-04-12T23:18:27.439Z,0.98
2023-04-12T23:20:55.488Z,0.70
2023-04-12T23:23:26.634Z,1.45
2023-04-12T23:25:56.070Z,0.98
2023-04-12T23:28:26.580Z,1.25
2023-04-12T23:30:54.684Z,1.35
2023-04-12T23:33:22.729Z,0.82
2023-04-12T23:35:53.518Z,1.35
2023-04-12T23:38:24.599Z,1.15
2023-04-12T23:40:54.664Z,1.02
2023-04-12T23:43:23.287Z,0.82
2023-04-12T23:45:51.320Z,1.67
2023-04-12T23:48:19.358Z,1.77
2023-04-12T23:50:48.121Z,0.98
2023-04-12T23:53:16.915Z,1.45
2023-04-12T23:55:45.352Z,1.75
2023-04-12T23:58:15.219Z,1.40
